Time,TemperatureF,DewpointF,PressureIn,WindDirection,WindDirectionDegrees,WindSpeedMPH,WindSpeedGustMPH,Humidity,HourlyPrecipIn,Conditions,Clouds,dailyrainin,SoftwareType,DateUTC
2013-05-30 00:03:00,69.0,62.0,-100.00,South,185,5.0,6.0,78,0.00,,,-99.99,,2013-05-30 04:03:00,
2013-05-30 00:13:00,69.0,62.0,-100.00,South,185,6.0,6.0,77,0.00,,,-99.99,,2013-05-30 04:13:00,
2013-05-30 00:23:00,69.0,61.0,-100.00,South,190,6.0,7.0,76,0.00,,,-99.99,,2013-05-30 04:23:00,
2013-05-30 00:33:00,69.0,61.0,-100.00,South,190,6.0,7.0,75,0.00,,,-99.99,,2013-05-30 04:33:00,
2013-05-30 00:42:00,69.0,61.0,-100.00,South,185,6.0,7.0,75,0.00,,,-99.99,,2013-05-30 04:42:00,
2013-05-30 00:53:00,69.0,61.0,-100.00,South,185,4.0,6.0,76,0.00,,,-99.99,,2013-05-30 04:53:00,
2013-05-30 01:02:00,69.0,60.0,-100.00,South,185,5.0,6.0,75,0.00,,,-99.99,,2013-05-30 05:02:00,
2013-05-30 01:12:00,69.0,60.0,-100.00,South,190,7.0,9.0,74,0.00,,,-99.99,,2013-05-30 05:12:00,
2013-05-30 01:22:00,69.0,60.0,-100.00,South,190,6.0,8.0,74,0.00,,,-99.99,,2013-05-30 05:22:00,
2013-05-30 01:32:00,68.0,60.0,-100.00,South,190,6.0,6.0,74,0.00,,,-99.99,,2013-05-30 05:32:00,
2013-05-30 01:42:00,68.0,60.0,-100.00,South,190,5.0,6.0,75,0.00,,,-99.99,,2013-05-30 05:42:00,
2013-05-30 01:52:00,68.0,60.0,-100.00,SSW,195,6.0,7.0,75,0.00,,,-99.99,,2013-05-30 05:52:00,
2013-05-30 02:01:00,68.0,60.0,-100.00,South,190,7.0,9.0,74,0.00,,,-99.99,,2013-05-30 06:01:00,
2013-05-30 02:12:00,68.0,60.0,-100.00,SSW,200,6.0,8.0,75,0.00,,,-99.99,,2013-05-30 06:12:00,
2013-05-30 02:22:00,68.0,60.0,-100.00,SSW,200,6.0,8.0,75,0.00,,,-99.99,,2013-05-30 06:22:00,
2013-05-30 02:32:00,68.0,60.0,-100.00,SSW,195,6.0,7.0,75,0.00,,,-99.99,,2013-05-30 06:32:00,
2013-05-30 02:42:00,68.0,60.0,-100.00,SSW,195,6.0,8.0,75,0.00,,,-99.99,,2013-05-30 06:42:00,
2013-05-30 02:52:00,67.0,60.0,-100.00,SSW,200,6.0,7.0,77,0.00,,,-99.99,,2013-05-30 06:52:00,
2013-05-30 03:01:00,68.0,60.0,-100.00,SSW,200,6.0,7.0,76,0.00,,,-99.99,,2013-05-30 07:01:00,
2013-05-30 03:12:00,68.0,60.0,-100.00,SSW,200,6.0,6.0,76,0.00,,,-99.99,,2013-05-30 07:12:00,
2013-05-30 03:22:00,67.0,60.0,-100.00,SSW,200,6.0,7.0,77,0.00,,,-99.99,,2013-05-30 07:22:00,
2013-05-30 03:32:00,67.0,60.0,-100.00,SSW,195,5.0,7.0,79,0.00,,,-99.99,,2013-05-30 07:32:00,
2013-05-30 03:42:00,67.0,61.0,-100.00,SSW,195,4.0,6.0,79,0.00,,,-99.99,,2013-05-30 07:42:00,
2013-05-30 03:52:00,67.0,61.0,-100.00,SSW,195,4.0,6.0,79,0.00,,,-99.99,,2013-05-30 07:52:00,
2013-05-30 04:02:00,67.0,61.0,-100.00,South,190,4.0,6.0,80,0.00,,,-99.99,,2013-05-30 08:02:00,
2013-05-30 04:11:00,67.0,61.0,-100.00,SSW,200,3.0,4.0,80,0.00,,,-99.99,,2013-05-30 08:11:00,
2013-05-30 04:22:00,67.0,61.0,-100.00,SSW,200,4.0,5.0,81,0.00,,,-99.99,,2013-05-30 08:22:00,
2013-05-30 04:32:00,67.0,61.0,-100.00,SSW,195,4.0,6.0,81,0.00,,,-99.99,,2013-05-30 08:32:00,
2013-05-30 04:42:00,67.0,61.0,-100.00,SSW,200,5.0,7.0,81,0.00,,,-99.99,,2013-05-30 08:42:00,
2013-05-30 04:52:00,67.0,61.0,-100.00,SSW,200,6.0,7.0,82,0.00,,,-99.99,,2013-05-30 08:52:00,
2013-05-30 05:01:00,67.0,62.0,-100.00,SSW,200,6.0,6.0,82,0.00,,,-99.99,,2013-05-30 09:01:00,
2013-05-30 05:11:00,67.0,62.0,-100.00,SSW,205,6.0,7.0,82,0.00,,,-99.99,,2013-05-30 09:11:00,
2013-05-30 05:21:00,67.0,62.0,-100.00,SSW,205,6.0,8.0,82,0.00,,,-99.99,,2013-05-30 09:21:00,
2013-05-30 05:33:00,67.0,62.0,-100.00,SSW,200,6.0,7.0,82,0.00,,,-99.99,,2013-05-30 09:33:00,
2013-05-30 05:42:00,67.0,62.0,-100.00,SSW,205,6.0,9.0,82,0.00,,,-99.99,,2013-05-30 09:42:00,
2013-05-30 05:53:00,67.0,62.0,-100.00,SSW,205,6.0,7.0,82,0.00,,,-99.99,,2013-05-30 09:53:00,
2013-05-30 06:03:00,67.0,62.0,-100.00,SSW,200,5.0,7.0,83,0.00,,,-99.99,,2013-05-30 10:03:00,
2013-05-30 06:13:00,66.0,62.0,-100.00,SSW,200,4.0,6.0,84,0.00,,,-99.99,,2013-05-30 10:13:00,
2013-05-30 06:23:00,67.0,62.0,-100.00,SSW,205,5.0,6.0,84,0.00,,,-99.99,,2013-05-30 10:23:00,
2013-05-30 06:33:00,68.0,62.0,-100.00,SSW,200,6.0,9.0,82,0.00,,,-99.99,,2013-05-30 10:33:00,
2013-05-30 06:42:00,67.0,62.0,-100.00,SSW,200,6.0,7.0,84,0.00,,,-99.99,,2013-05-30 10:42:00,
2013-05-30 06:52:00,68.0,63.0,-100.00,SSW,205,6.0,8.0,83,0.00,,,-99.99,,2013-05-30 10:52:00,
2013-05-30 07:03:00,68.0,63.0,-100.00,SSW,205,6.0,9.0,83,0.00,,,-99.99,,2013-05-30 11:03:00,
2013-05-30 07:12:00,68.0,63.0,-100.00,SSW,205,6.0,9.0,83,0.00,,,-99.99,,2013-05-30 11:12:00,
2013-05-30 07:22:00,68.0,63.0,-100.00,SSW,210,7.0,9.0,83,0.00,,,-99.99,,2013-05-30 11:22:00,
2013-05-30 07:32:00,69.0,63.0,-100.00,SSW,200,7.0,11.0,82,0.00,,,-99.99,,2013-05-30 11:32:00,
2013-05-30 07:42:00,69.0,63.0,-100.00,SSW,200,9.0,12.0,82,0.00,,,-99.99,,2013-05-30 11:42:00,
2013-05-30 07:52:00,69.0,64.0,-100.00,SSW,200,9.0,11.0,82,0.00,,,-99.99,,2013-05-30 11:52:00,
2013-05-30 08:01:00,70.0,64.0,-100.00,SSW,200,9.0,11.0,81,0.00,,,-99.99,,2013-05-30 12:01:00,
2013-05-30 08:11:00,72.0,64.0,-100.00,SSW,205,11.0,15.0,77,0.00,,,-99.99,,2013-05-30 12:11:00,
2013-05-30 08:22:00,73.0,65.0,-100.00,SSW,200,11.0,16.0,75,0.00,,,-99.99,,2013-05-30 12:22:00,
2013-05-30 08:32:00,73.0,65.0,-100.00,SSW,205,13.0,19.0,73,0.00,,,-99.99,,2013-05-30 12:32:00,
2013-05-30 08:42:00,75.0,65.0,-100.00,SSW,205,12.0,16.0,72,0.00,,,-99.99,,2013-05-30 12:42:00,
2013-05-30 08:52:00,75.0,65.0,-100.00,SSW,210,15.0,19.0,69,0.00,,,-99.99,,2013-05-30 12:52:00,
2013-05-30 09:01:00,76.0,65.0,-100.00,SSW,210,13.0,18.0,67,0.00,,,-99.99,,2013-05-30 13:01:00,
2013-05-30 09:11:00,77.0,65.0,-100.00,SW,215,12.0,18.0,66,0.00,,,-99.99,,2013-05-30 13:11:00,
2013-05-30 09:22:00,78.0,65.0,-100.00,SSW,210,14.0,22.0,64,0.00,,,-99.99,,2013-05-30 13:22:00,
2013-05-30 09:32:00,79.0,65.0,-100.00,SW,220,13.0,19.0,62,0.00,,,-99.99,,2013-05-30 13:32:00,
2013-05-30 09:42:00,80.0,65.0,-100.00,SW,220,14.0,22.0,61,0.00,,,-99.99,,2013-05-30 13:42:00,
2013-05-30 09:52:00,80.0,65.0,-100.00,SW,220,20.0,25.0,60,0.00,,,-99.99,,2013-05-30 13:52:00,
2013-05-30 10:02:00,80.0,66.0,-100.00,SW,225,16.0,27.0,61,0.00,,,-99.99,,2013-05-30 14:02:00,
2013-05-30 10:11:00,79.0,64.0,-100.00,SW,235,19.0,27.0,60,0.00,,,-99.99,,2013-05-30 14:11:00,
2013-05-30 10:22:00,79.0,65.0,-100.00,SW,225,19.0,25.0,61,0.00,,,-99.99,,2013-05-30 14:22:00,
2013-05-30 10:32:00,79.0,65.0,-100.00,SW,225,16.0,25.0,62,0.00,,,-99.99,,2013-05-30 14:32:00,
2013-05-30 10:42:00,80.0,64.0,-100.00,SW,215,16.0,27.0,58,0.00,,,-99.99,,2013-05-30 14:42:00,
2013-05-30 10:52:00,79.0,65.0,-100.00,SSW,210,16.0,24.0,61,0.00,,,-99.99,,2013-05-30 14:52:00,
2013-05-30 11:01:00,79.0,65.0,-100.00,SW,220,16.0,22.0,61,0.00,,,-99.99,,2013-05-30 15:01:00,
2013-05-30 11:11:00,80.0,65.0,-100.00,SW,220,14.0,22.0,60,0.00,,,-99.99,,2013-05-30 15:11:00,
2013-05-30 11:22:00,81.0,66.0,-100.00,SW,230,14.0,22.0,61,0.00,,,-99.99,,2013-05-30 15:22:00,
2013-05-30 11:33:00,81.0,66.0,-100.00,SSW,205,14.0,19.0,60,0.00,,,-99.99,,2013-05-30 15:33:00,
2013-05-30 11:42:00,82.0,66.0,-100.00,SW,225,14.0,19.0,57,0.00,,,-99.99,,2013-05-30 15:42:00,
2013-05-30 11:52:00,83.0,66.0,-100.00,SSW,200,15.0,20.0,56,0.00,,,-99.99,,2013-05-30 15:52:00,
2013-05-30 12:03:00,83.0,64.0,-100.00,SSW,210,19.0,23.0,54,0.00,,,-99.99,,2013-05-30 16:03:00,
2013-05-30 12:12:00,83.0,66.0,-100.00,SW,220,16.0,21.0,56,0.00,,,-99.99,,2013-05-30 16:12:00,
2013-05-30 12:23:00,84.0,65.0,-100.00,SW,215,16.0,22.0,53,0.00,,,-99.99,,2013-05-30 16:23:00,
2013-05-30 12:33:00,84.0,65.0,-100.00,SW,230,15.0,20.0,53,0.00,,,-99.99,,2013-05-30 16:33:00,
2013-05-30 12:42:00,85.0,65.0,-100.00,SW,220,13.0,21.0,52,0.00,,,-99.99,,2013-05-30 16:42:00,
2013-05-30 12:52:00,85.0,65.0,-100.00,SSW,195,14.0,21.0,51,0.00,,,-99.99,,2013-05-30 16:52:00,
2013-05-30 13:02:00,85.0,65.0,-100.00,SW,215,15.0,23.0,51,0.00,,,-99.99,,2013-05-30 17:02:00,
2013-05-30 13:12:00,86.0,64.0,-100.00,SSW,200,16.0,25.0,47,0.00,,,-99.99,,2013-05-30 17:12:00,
2013-05-30 13:22:00,86.0,64.0,-100.00,SW,215,19.0,25.0,48,0.00,,,-99.99,,2013-05-30 17:22:00,
2013-05-30 13:32:00,87.0,64.0,-100.00,SSW,205,17.0,27.0,46,0.00,,,-99.99,,2013-05-30 17:32:00,
2013-05-30 13:42:00,87.0,64.0,-100.00,SSW,210,14.0,29.0,47,0.00,,,-99.99,,2013-05-30 17:42:00,
2013-05-30 13:52:00,88.0,64.0,-100.00,SSW,205,18.0,25.0,44,0.00,,,-99.99,,2013-05-30 17:52:00,
2013-05-30 14:02:00,88.0,64.0,-100.00,SSW,210,16.0,25.0,44,0.00,,,-99.99,,2013-05-30 18:02:00,
2013-05-30 14:11:00,86.0,64.0,-100.00,SW,225,21.0,27.0,47,0.00,,,-99.99,,2013-05-30 18:11:00,
2013-05-30 14:22:00,87.0,64.0,-100.00,SSW,205,14.0,25.0,46,0.00,,,-99.99,,2013-05-30 18:22:00,
2013-05-30 14:32:00,86.0,63.0,-100.00,SW,215,17.0,25.0,46,0.00,,,-99.99,,2013-05-30 18:32:00,
2013-05-30 14:42:00,87.0,62.0,-100.00,SW,220,16.0,25.0,44,0.00,,,-99.99,,2013-05-30 18:42:00,
2013-05-30 14:51:00,87.0,62.0,-100.00,SW,225,22.0,29.0,43,0.00,,,-99.99,,2013-05-30 18:51:00,
2013-05-30 15:02:00,87.0,63.0,-100.00,SW,235,17.0,28.0,44,0.00,,,-99.99,,2013-05-30 19:02:00,
2013-05-30 15:12:00,88.0,63.0,-100.00,SW,230,18.0,25.0,44,0.00,,,-99.99,,2013-05-30 19:12:00,
2013-05-30 15:23:00,86.0,63.0,-100.00,SW,225,12.0,22.0,46,0.00,,,-99.99,,2013-05-30 19:23:00,
2013-05-30 15:32:00,86.0,63.0,-100.00,SW,225,15.0,19.0,46,0.00,,,-99.99,,2013-05-30 19:32:00,
2013-05-30 15:42:00,87.0,63.0,-100.00,SW,225,14.0,22.0,44,0.00,,,-99.99,,2013-05-30 19:42:00,
2013-05-30 15:52:00,87.0,62.0,-100.00,SW,225,17.0,23.0,43,0.00,,,-99.99,,2013-05-30 19:52:00,
2013-05-30 16:02:00,87.0,63.0,-100.00,SW,220,16.0,24.0,45,0.00,,,-99.99,,2013-05-30 20:02:00,
2013-05-30 16:11:00,86.0,63.0,-100.00,SW,225,16.0,23.0,45,0.00,,,-99.99,,2013-05-30 20:11:00,
2013-05-30 16:22:00,81.0,66.0,-100.00,WSW,250,14.0,22.0,60,0.00,,,-99.99,,2013-05-30 20:22:00,
2013-05-30 16:33:00,81.0,67.0,-100.00,WSW,240,12.0,16.0,61,0.00,,,-99.99,,2013-05-30 20:33:00,
2013-05-30 16:42:00,83.0,67.0,-100.00,SW,235,11.0,17.0,58,0.00,,,-99.99,,2013-05-30 20:42:00,
2013-05-30 16:52:00,87.0,64.0,-100.00,SW,220,12.0,17.0,46,0.00,,,-99.99,,2013-05-30 20:52:00,
2013-05-30 17:01:00,86.0,63.0,-100.00,SSW,205,16.0,25.0,46,0.00,,,-99.99,,2013-05-30 21:01:00,
2013-05-30 17:11:00,87.0,63.0,-100.00,SSW,200,16.0,22.0,45,0.00,,,-99.99,,2013-05-30 21:11:00,
2013-05-30 17:22:00,88.0,63.0,-100.00,SSW,205,16.0,22.0,42,0.00,,,-99.99,,2013-05-30 21:22:00,
2013-05-30 17:33:00,87.0,62.0,-100.00,SSW,210,17.0,26.0,42,0.00,,,-99.99,,2013-05-30 21:33:00,
2013-05-30 17:43:00,87.0,63.0,-100.00,SSW,195,16.0,24.0,44,0.00,,,-99.99,,2013-05-30 21:43:00,
2013-05-30 17:53:00,86.0,62.0,-100.00,South,175,20.0,27.0,45,0.00,,,-99.99,,2013-05-30 21:53:00,
2013-05-30 18:02:00,86.0,62.0,-100.00,South,190,20.0,25.0,44,0.00,,,-99.99,,2013-05-30 22:02:00,
2013-05-30 18:12:00,85.0,62.0,-100.00,SSW,195,20.0,27.0,45,0.00,,,-99.99,,2013-05-30 22:12:00,
2013-05-30 18:23:00,85.0,63.0,-100.00,SSW,205,16.0,22.0,46,0.00,,,-99.99,,2013-05-30 22:23:00,
2013-05-30 18:33:00,86.0,62.0,-100.00,SSW,200,14.0,21.0,45,0.00,,,-99.99,,2013-05-30 22:33:00,
2013-05-30 18:42:00,85.0,62.0,-100.00,SSW,200,15.0,22.0,46,0.00,,,-99.99,,2013-05-30 22:42:00,
2013-05-30 18:52:00,84.0,63.0,-100.00,SSW,205,12.0,21.0,48,0.00,,,-99.99,,2013-05-30 22:52:00,
2013-05-30 19:02:00,85.0,64.0,-100.00,SSW,195,11.0,16.0,49,0.00,,,-99.99,,2013-05-30 23:02:00,
2013-05-30 19:11:00,85.0,62.0,-100.00,SSW,205,13.0,16.0,46,0.00,,,-99.99,,2013-05-30 23:11:00,
2013-05-30 19:22:00,85.0,63.0,-100.00,SW,215,9.0,16.0,47,0.00,,,-99.99,,2013-05-30 23:22:00,
2013-05-30 19:32:00,85.0,63.0,-100.00,SW,220,7.0,14.0,48,0.00,,,-99.99,,2013-05-30 23:32:00,
2013-05-30 19:41:00,85.0,64.0,-100.00,SSW,205,5.0,11.0,50,0.00,,,-99.99,,2013-05-30 23:41:00,
2013-05-30 19:52:00,80.0,67.0,-100.00,SW,230,20.0,43.0,62,0.55,,,-99.99,,2013-05-30 23:52:00,
2013-05-30 20:01:00,71.0,69.0,-100.00,NW,320,6.0,21.0,94,0.00,,,-99.99,,2013-05-31 00:01:00,
2013-05-30 20:11:00,72.0,70.0,-100.00,NW,305,2.0,10.0,93,0.00,,,-99.99,,2013-05-31 00:11:00,
2013-05-30 20:22:00,73.0,71.0,-100.00,NE,50,1.0,5.0,92,0.00,,,-99.99,,2013-05-31 00:22:00,
2013-05-30 20:32:00,74.0,67.0,-100.00,SW,235,13.0,28.0,80,0.00,,,-99.99,,2013-05-31 00:32:00,
2013-05-30 20:42:00,68.0,64.0,-100.00,SW,235,25.0,36.0,85,7.36,,,-99.99,,2013-05-31 00:42:00,
2013-05-30 20:52:00,69.0,64.0,-100.00,South,190,10.0,22.0,83,1.10,,,-99.99,,2013-05-31 00:52:00,
2013-05-30 21:01:00,70.0,64.0,-100.00,SSW,200,4.0,10.0,81,0.00,,,-99.99,,2013-05-31 01:01:00,
2013-05-30 21:12:00,71.0,64.0,-100.00,South,175,3.0,6.0,80,0.00,,,-99.99,,2013-05-31 01:12:00,
2013-05-30 21:21:00,71.0,64.0,-100.00,South,190,3.0,4.0,78,0.00,,,-99.99,,2013-05-31 01:21:00,
2013-05-30 21:32:00,72.0,64.0,-100.00,SSW,200,4.0,5.0,76,0.00,,,-99.99,,2013-05-31 01:32:00,
2013-05-30 21:42:00,72.0,65.0,-100.00,South,180,4.0,7.0,77,0.00,,,-99.99,,2013-05-31 01:42:00,
2013-05-30 21:52:00,72.0,65.0,-100.00,South,180,4.0,7.0,77,0.00,,,-99.99,,2013-05-31 01:52:00,
2013-05-30 22:02:00,71.0,66.0,-100.00,ESE,110,1.0,2.0,84,0.00,,,-99.99,,2013-05-31 02:02:00,
2013-05-30 22:11:00,70.0,66.0,-100.00,SE,125,2.0,3.0,85,0.00,,,-99.99,,2013-05-31 02:11:00,
2013-05-30 22:22:00,70.0,66.0,-100.00,SE,135,2.0,3.0,86,0.00,,,-99.99,,2013-05-31 02:22:00,
2013-05-30 22:32:00,70.0,66.0,-100.00,ESE,110,1.0,2.0,87,0.00,,,-99.99,,2013-05-31 02:32:00,
2013-05-30 22:42:00,70.0,66.0,-100.00,ESE,120,2.0,3.0,86,0.00,,,-99.99,,2013-05-31 02:42:00,
2013-05-30 22:51:00,70.0,66.0,-100.00,SE,135,4.0,6.0,86,0.00,,,-99.99,,2013-05-31 02:51:00,
2013-05-30 23:01:00,70.0,66.0,-100.00,SE,140,6.0,7.0,85,0.00,,,-99.99,,2013-05-31 03:01:00,
2013-05-30 23:11:00,71.0,66.0,-100.00,SE,145,4.0,7.0,82,0.00,,,-99.99,,2013-05-31 03:11:00,
2013-05-30 23:21:00,71.0,66.0,-100.00,SSE,160,2.0,5.0,84,0.00,,,-99.99,,2013-05-31 03:21:00,
2013-05-30 23:33:00,72.0,66.0,-100.00,South,180,6.0,7.0,82,0.00,,,-99.99,,2013-05-31 03:33:00,
2013-05-30 23:43:00,73.0,66.0,-100.00,South,180,7.0,9.0,79,0.00,,,-99.99,,2013-05-31 03:43:00,
2013-05-30 23:53:00,72.0,66.0,-100.00,South,190,6.0,7.0,80,0.00,,,-99.99,,2013-05-31 03:53:00,